createdAt,value
2022-12-18T00:00:32.045Z,100970.91
2022-12-18T00:02:33.605Z,100975.31
2022-12-18T00:04:35.024Z,100971.03
2022-12-18T00:06:36.710Z,100973.81
2022-12-18T00:08:38.401Z,100979.81
2022-12-18T00:10:39.779Z,100979.81
2022-12-18T00:12:41.179Z,100979.13
2022-12-18T00:14:43.166Z,100978.31
2022-12-18T00:16:46.363Z,100975.91
2022-12-18T00:18:49.972Z,100969.91
2022-12-18T00:20:51.342Z,100976.69
2022-12-18T00:22:53.603Z,100979.28
2022-12-18T00:24:54.978Z,100986.09
2022-12-18T00:26:56.337Z,100979.38
2022-12-18T00:29:02.874Z,100977.63
2022-12-18T00:31:13.506Z,100973.56
2022-12-18T00:33:14.932Z,100976.13
2022-12-18T00:35:16.335Z,100983.84
2022-12-18T00:37:20.208Z,100973.56
2022-12-18T00:39:22.019Z,100979.59
2022-12-18T00:41:42.309Z,100985.75
2022-12-18T00:43:43.730Z,100984.84
2022-12-18T00:45:45.308Z,100988.31
2022-12-18T00:47:47.031Z,100989.22
2022-12-18T00:49:48.371Z,100997.03
2022-12-18T00:51:50.246Z,100997.09
2022-12-18T00:53:51.831Z,100995.34
2022-12-18T00:55:53.178Z,100992.00
2022-12-18T00:57:54.620Z,100993.63
2022-12-18T00:59:55.966Z,100990.13
2022-12-18T01:01:57.487Z,100989.38
2022-12-18T01:04:01.036Z,100990.22
2022-12-18T01:06:10.690Z,100997.91
2022-12-18T01:08:12.096Z,100990.22
2022-12-18T01:10:14.484Z,100993.53
2022-12-18T01:12:15.927Z,100985.97
2022-12-18T01:14:17.328Z,100985.06
2022-12-18T01:16:19.116Z,100980.84
2022-12-18T01:18:20.494Z,100977.44
2022-12-18T01:20:21.951Z,100977.25
2022-12-18T01:22:23.336Z,100982.28
2022-12-18T01:24:24.842Z,100984.00
2022-12-18T01:26:28.275Z,100986.81
2022-12-18T01:28:29.622Z,100982.34
2022-12-18T01:30:31.016Z,100979.78
2022-12-18T01:32:32.939Z,100992.63
2022-12-18T01:34:36.924Z,100995.34
2022-12-18T01:36:39.940Z,100991.03
2022-12-18T01:38:41.412Z,100987.53
2022-12-18T01:40:42.797Z,100994.44
2022-12-18T01:42:44.151Z,100996.25
2022-12-18T01:44:56.288Z,101001.22
2022-12-18T01:46:57.682Z,100997.75
2022-12-18T01:49:01.671Z,100995.13
2022-12-18T01:51:03.414Z,100981.44
2022-12-18T01:53:10.927Z,100984.84
2022-12-18T01:55:13.416Z,100975.47
2022-12-18T01:57:15.267Z,100977.19
2022-12-18T01:59:17.300Z,100976.47
2022-12-18T02:01:44.413Z,100978.88
2022-12-18T02:04:11.390Z,100967.91
2022-12-18T02:09:18.651Z,100976.19
2022-12-18T02:11:34.211Z,100989.03
2022-12-18T02:14:04.945Z,100985.81
2022-12-18T02:16:31.312Z,100981.44
2022-12-18T02:18:36.504Z,100979.69
2022-12-18T02:20:46.646Z,100974.56
2022-12-18T02:23:01.856Z,100979.69
2022-12-18T02:25:21.491Z,100969.56
2022-12-18T02:27:23.580Z,100971.31
2022-12-18T02:29:30.563Z,100972.13
2022-12-18T02:31:37.799Z,100971.22
2022-12-18T02:33:41.337Z,100971.22
2022-12-18T02:35:45.093Z,100970.38
2022-12-18T02:37:48.123Z,100967.91
2022-12-18T02:39:52.200Z,100964.50
2022-12-18T02:41:53.660Z,100955.97
2022-12-18T02:44:00.877Z,100957.81
2022-12-18T02:46:26.266Z,100958.53
2022-12-18T02:48:33.550Z,100959.38
2022-12-18T02:50:49.753Z,100957.69
2022-12-18T02:53:11.226Z,100967.97
2022-12-18T02:55:31.415Z,100971.44
2022-12-18T02:57:54.348Z,100969.72
2022-12-18T03:00:07.284Z,100979.25
2022-12-18T03:02:20.530Z,100977.44
2022-12-18T03:04:37.941Z,100962.16
2022-12-18T03:07:04.382Z,100968.16
2022-12-18T03:09:10.112Z,100971.31
2022-12-18T03:11:14.202Z,100971.44
2022-12-18T03:13:43.216Z,100973.13
2022-12-18T03:15:48.904Z,100964.69
2022-12-18T03:17:57.631Z,100962.94
2022-12-18T03:20:04.481Z,100954.47
2022-12-18T03:22:08.452Z,100963.00
2022-12-18T03:24:12.064Z,100962.16
2022-12-18T03:26:19.970Z,100958.03
2022-12-18T03:28:23.651Z,100961.34
2022-12-18T03:30:27.791Z,100957.94
2022-12-18T03:32:33.929Z,100964.84
2022-12-18T03:34:38.909Z,100960.59
2022-12-18T03:36:40.350Z,100959.69
2022-12-18T03:38:42.007Z,100950.31
2022-12-18T03:41:01.006Z,100951.00
2022-12-18T03:43:25.274Z,100951.22
2022-12-18T03:45:35.291Z,100945.91
2022-12-18T03:47:56.936Z,100943.19
2022-12-18T03:50:16.881Z,100942.44
2022-12-18T03:52:41.755Z,100944.19
2022-12-18T03:54:44.344Z,100943.13
2022-12-18T03:56:55.897Z,100945.75
2022-12-18T03:58:59.930Z,100949.31
2022-12-18T04:01:06.268Z,100953.56
2022-12-18T04:03:09.900Z,100962.28
2022-12-18T04:05:12.888Z,100963.06
2022-12-18T04:07:15.082Z,100963.91
2022-12-18T04:09:16.577Z,100959.69
2022-12-18T04:11:18.055Z,100958.88
2022-12-18T04:13:24.590Z,100953.78
2022-12-18T04:15:26.285Z,100952.97
2022-12-18T04:17:27.770Z,100952.22
2022-12-18T04:19:29.147Z,100957.44
2022-12-18T04:21:30.501Z,100955.69
2022-12-18T04:23:31.970Z,100955.69
2022-12-18T04:25:33.303Z,100960.75
2022-12-18T04:27:34.986Z,100953.13
2022-12-18T04:29:36.355Z,100948.16
2022-12-18T04:31:37.776Z,100953.06
2022-12-18T04:33:39.843Z,100963.16
2022-12-18T04:35:42.317Z,100959.53
2022-12-18T04:37:43.700Z,100961.72
2022-12-18T04:39:45.117Z,100956.63
2022-12-18T04:41:46.579Z,100954.91
2022-12-18T04:43:47.956Z,100957.38
2022-12-18T04:45:49.362Z,100955.41
2022-12-18T04:47:50.716Z,100955.34
2022-12-18T04:49:52.208Z,100961.88
2022-12-18T04:51:53.979Z,100964.22
2022-12-18T04:53:55.751Z,100952.34
2022-12-18T04:56:08.324Z,100952.34
2022-12-18T04:58:09.724Z,100959.13
2022-12-18T05:00:11.701Z,100951.53
2022-12-18T05:02:13.114Z,100960.22
2022-12-18T05:04:14.563Z,100962.22
2022-12-18T05:06:15.969Z,100958.84
2022-12-18T05:08:17.460Z,100956.09
2022-12-18T05:10:18.932Z,100949.28
2022-12-18T05:12:20.843Z,100951.84
2022-12-18T05:14:22.245Z,100939.50
2022-12-18T05:16:23.690Z,100943.38
2022-12-18T05:18:26.056Z,100937.69
2022-12-18T05:20:28.303Z,100933.44
2022-12-18T05:22:29.840Z,100932.59
2022-12-18T05:24:31.240Z,100933.50
2022-12-18T05:26:32.611Z,100929.31
2022-12-18T05:28:35.432Z,100928.38
2022-12-18T05:30:36.805Z,100924.81
2022-12-18T05:32:38.963Z,100923.22
2022-12-18T05:34:40.344Z,100918.75
2022-12-18T05:36:41.696Z,100914.53
2022-12-18T05:38:43.363Z,100914.38
2022-12-18T05:40:44.900Z,100911.44
2022-12-18T05:42:46.264Z,100917.50
2022-12-18T05:44:47.687Z,100913.19
2022-12-18T05:46:49.152Z,100916.59
2022-12-18T05:48:51.717Z,100915.59
2022-12-18T05:50:53.109Z,100913.13
2022-12-18T05:52:54.463Z,100914.91
2022-12-18T05:54:55.902Z,100917.25
2022-12-18T05:56:58.067Z,100924.13
2022-12-18T05:58:59.427Z,100935.00
2022-12-18T06:01:09.034Z,100941.72
2022-12-18T06:03:12.031Z,100942.50
2022-12-18T06:05:13.527Z,100943.38
2022-12-18T06:07:14.894Z,100955.41
2022-12-18T06:09:16.366Z,100947.28
2022-12-18T06:11:21.836Z,100959.06
2022-12-18T06:13:23.294Z,100951.66
2022-12-18T06:15:25.391Z,100948.59
2022-12-18T06:17:33.687Z,100952.81
2022-12-18T06:19:35.120Z,100954.72
2022-12-18T06:21:36.535Z,100955.22
2022-12-18T06:23:38.984Z,100953.75
2022-12-18T06:25:40.787Z,100963.28
2022-12-18T06:27:42.288Z,100962.44
2022-12-18T06:29:44.544Z,100969.09
2022-12-18T06:31:46.538Z,100972.66
2022-12-18T06:33:48.016Z,100969.19
2022-12-18T06:35:49.504Z,100971.66
2022-12-18T06:37:51.018Z,100964.75
2022-12-18T06:39:53.703Z,100973.06
2022-12-18T06:41:55.113Z,100975.06
2022-12-18T06:43:59.725Z,100977.88
2022-12-18T06:46:02.441Z,100980.22
2022-12-18T06:48:04.051Z,100978.47
2022-12-18T06:50:06.468Z,100968.34
2022-12-18T06:52:07.856Z,100975.81
2022-12-18T06:54:09.373Z,100963.44
2022-12-18T06:56:11.202Z,100962.25
2022-12-18T06:58:12.651Z,100966.72
2022-12-18T07:00:14.503Z,100969.28
2022-12-18T07:02:15.962Z,100965.53
2022-12-18T07:04:18.176Z,100969.47
2022-12-18T07:06:21.357Z,100964.06
2022-12-18T07:08:22.794Z,100952.66
2022-12-18T07:10:24.187Z,100951.94
2022-12-18T07:12:25.543Z,100956.19
2022-12-18T07:14:26.957Z,100947.81
2022-12-18T07:16:29.548Z,100946.16
2022-12-18T07:18:31.260Z,100951.13
2022-12-18T07:20:32.619Z,100959.31
2022-12-18T07:22:34.130Z,100956.94
2022-12-18T07:24:35.813Z,100958.59
2022-12-18T07:26:37.536Z,100959.63
2022-12-18T07:28:40.695Z,100950.41
2022-12-18T07:30:42.067Z,100957.13
2022-12-18T07:32:43.525Z,100951.31
2022-12-18T07:34:44.939Z,100942.59
2022-12-18T07:36:46.308Z,100947.84
2022-12-18T07:38:48.969Z,100947.31
2022-12-18T07:40:50.355Z,100944.22
2022-12-18T07:42:51.752Z,100936.41
2022-12-18T07:44:53.140Z,100943.56
2022-12-18T07:46:54.491Z,100944.31
2022-12-18T07:48:55.883Z,100933.72
2022-12-18T07:51:06.109Z,100934.47
2022-12-18T07:53:07.476Z,100940.25
2022-12-18T07:55:09.248Z,100927.78
2022-12-18T07:57:33.759Z,100937.91
2022-12-18T07:59:31.971Z,100931.94
2022-12-18T08:01:34.780Z,100933.28
2022-12-18T08:03:37.462Z,100932.25
2022-12-18T08:05:39.036Z,100942.72
2022-12-18T08:07:40.611Z,100936.34
2022-12-18T08:09:42.031Z,100930.41
2022-12-18T08:11:44.203Z,100929.81
2022-12-18T08:13:45.574Z,100928.81
2022-12-18T08:15:47.136Z,100928.06
2022-12-18T08:17:48.523Z,100930.88
2022-12-18T08:19:49.919Z,100920.97
2022-12-18T08:21:51.343Z,100913.31
2022-12-18T08:23:54.786Z,100911.16
2022-12-18T08:25:56.137Z,100911.06
2022-12-18T08:27:57.710Z,100903.75
2022-12-18T08:29:59.094Z,100897.44
2022-12-18T08:32:00.705Z,100896.72
2022-12-18T08:34:02.190Z,100893.31
2022-12-18T08:36:05.048Z,100891.75
2022-12-18T08:38:06.427Z,100886.91
2022-12-18T08:40:08.635Z,100881.28
2022-12-18T08:42:29.308Z,100868.91
2022-12-18T08:44:39.400Z,100851.59
2022-12-18T08:46:42.988Z,100860.19
2022-12-18T08:48:44.639Z,100862.84
2022-12-18T08:50:58.073Z,100856.53
2022-12-18T08:52:59.708Z,100860.22
2022-12-18T08:55:01.219Z,100856.25
2022-12-18T08:57:03.067Z,100848.41
2022-12-18T08:59:05.554Z,100847.97
2022-12-18T09:01:10.255Z,100840.94
2022-12-18T09:03:16.795Z,100844.13
2022-12-18T09:05:18.388Z,100855.19
2022-12-18T09:07:19.753Z,100857.41
2022-12-18T09:09:21.129Z,100861.91
2022-12-18T09:11:27.246Z,100865.00
2022-12-18T09:13:29.538Z,100867.97
2022-12-18T09:15:30.902Z,100862.94
2022-12-18T09:17:32.407Z,100851.78
2022-12-18T09:19:33.824Z,100848.53
2022-12-18T09:21:41.202Z,100851.22
2022-12-18T09:23:56.517Z,100855.75
2022-12-18T09:26:01.235Z,100844.41
2022-12-18T09:28:12.015Z,100842.91
2022-12-18T09:30:13.823Z,100839.63
2022-12-18T09:32:21.987Z,100836.59
2022-12-18T09:34:28.755Z,100838.59
2022-12-18T09:36:30.164Z,100842.13
2022-12-18T09:38:32.179Z,100842.47
2022-12-18T09:40:37.276Z,100849.44
2022-12-18T09:45:05.076Z,100833.88
2022-12-18T09:47:34.225Z,100832.59
2022-12-18T09:49:42.097Z,100819.72
2022-12-18T09:51:52.214Z,100820.91
2022-12-18T09:54:00.011Z,100819.47
2022-12-18T09:56:04.954Z,100809.56
2022-12-18T09:58:18.104Z,100810.50
2022-12-18T10:00:22.302Z,100812.34
2022-12-18T10:02:26.019Z,100807.84
2022-12-18T10:04:32.677Z,100811.41
2022-12-18T10:06:34.781Z,100810.69
2022-12-18T10:08:45.232Z,100822.44
2022-12-18T10:10:53.187Z,100817.72
2022-12-18T10:13:09.746Z,100824.06
2022-12-18T10:15:27.867Z,100816.59
2022-12-18T10:17:44.229Z,100804.06
2022-12-18T10:20:00.401Z,100791.88
2022-12-18T10:22:04.560Z,100787.81
2022-12-18T10:24:21.259Z,100781.78
2022-12-18T10:26:22.737Z,100786.97
2022-12-18T10:28:26.105Z,100771.81
2022-12-18T10:30:27.632Z,100768.81
2022-12-18T10:32:31.108Z,100764.78
2022-12-18T10:34:32.812Z,100775.59
2022-12-18T10:36:34.208Z,100776.63
2022-12-18T10:38:36.061Z,100774.31
2022-12-18T10:40:51.233Z,100771.19
2022-12-18T10:43:12.750Z,100760.00
2022-12-18T10:45:17.776Z,100754.53
2022-12-18T10:47:20.258Z,100747.13
2022-12-18T10:49:26.261Z,100740.47
2022-12-18T10:51:31.889Z,100743.38
2022-12-18T10:53:36.061Z,100731.84
2022-12-18T10:55:40.694Z,100718.44
2022-12-18T10:57:42.465Z,100721.59
2022-12-18T10:59:53.232Z,100728.19
2022-12-18T11:01:58.801Z,100720.38
2022-12-18T11:04:03.346Z,100721.75
2022-12-18T11:06:13.844Z,100720.38
2022-12-18T11:08:24.271Z,100719.16
2022-12-18T11:10:31.146Z,100719.59
2022-12-18T11:12:32.520Z,100715.47
2022-12-18T11:14:46.837Z,100721.34
2022-12-18T11:17:23.747Z,100720.69
2022-12-18T11:19:35.699Z,100706.56
2022-12-18T11:21:42.239Z,100705.19
2022-12-18T11:23:51.342Z,100706.69
2022-12-18T11:25:55.961Z,100702.69
2022-12-18T11:28:27.658Z,100691.75
2022-12-18T11:30:37.105Z,100695.72
2022-12-18T11:32:40.320Z,100693.22
2022-12-18T11:34:52.521Z,100691.16
2022-12-18T11:37:00.512Z,100690.34
2022-12-18T11:39:13.091Z,100693.88
2022-12-18T11:42:01.197Z,100683.88
2022-12-18T11:44:06.587Z,100686.84
2022-12-18T11:46:20.228Z,100683.16
2022-12-18T11:48:44.615Z,100677.50
2022-12-18T11:50:55.661Z,100665.16
2022-12-18T11:53:01.503Z,100668.16
2022-12-18T11:55:12.961Z,100658.28
2022-12-18T11:57:21.123Z,100646.75
2022-12-18T11:59:28.397Z,100640.94
2022-12-18T12:01:31.211Z,100637.75
2022-12-18T12:03:42.175Z,100634.34
2022-12-18T12:06:04.348Z,100624.56
2022-12-18T12:08:11.881Z,100631.44
2022-12-18T12:10:18.483Z,100617.16
2022-12-18T12:12:54.699Z,100628.41
2022-12-18T12:15:14.117Z,100625.34
2022-12-18T12:17:43.219Z,100624.78
2022-12-18T12:20:09.657Z,100620.50
2022-12-18T12:22:45.391Z,100618.97
2022-12-18T12:25:10.586Z,100624.31
2022-12-18T12:27:25.760Z,100615.00
2022-12-18T12:29:33.068Z,100618.38
2022-12-18T12:31:48.537Z,100613.31
2022-12-18T12:34:19.213Z,100607.09
2022-12-18T12:36:38.467Z,100608.22
2022-12-18T12:39:09.295Z,100602.03
2022-12-18T12:41:33.989Z,100594.00
2022-12-18T12:43:49.492Z,100589.13
2022-12-18T12:46:20.823Z,100591.22
2022-12-18T12:48:23.739Z,100588.31
2022-12-18T12:50:25.774Z,100593.41
2022-12-18T12:52:41.838Z,100589.53
2022-12-18T12:54:44.671Z,100585.97
2022-12-18T12:56:51.545Z,100574.53
2022-12-18T12:59:07.788Z,100576.19
2022-12-18T13:01:25.043Z,100575.94
2022-12-18T13:03:41.997Z,100578.41
2022-12-18T13:06:01.478Z,100574.91
2022-12-18T13:08:07.239Z,100570.44
2022-12-18T13:10:13.536Z,100564.25
2022-12-18T13:12:36.308Z,100573.69
2022-12-18T13:14:40.576Z,100565.75
2022-12-18T13:16:41.959Z,100567.81
2022-12-18T13:18:53.193Z,100570.56
2022-12-18T13:20:59.773Z,100566.47
2022-12-18T13:23:25.588Z,100566.19
2022-12-18T13:25:36.478Z,100566.19
2022-12-18T13:27:58.170Z,100561.13
2022-12-18T13:29:59.611Z,100565.50
2022-12-18T13:32:01.937Z,100560.31
2022-12-18T13:34:38.696Z,100554.38
2022-12-18T13:36:40.380Z,100551.66
2022-12-18T13:38:44.163Z,100550.00
2022-12-18T13:40:45.496Z,100547.03
2022-12-18T13:43:06.426Z,100546.63
2022-12-18T13:45:37.950Z,100555.59
2022-12-18T13:47:44.109Z,100559.81
2022-12-18T13:49:47.524Z,100561.78
2022-12-18T13:51:51.548Z,100564.69
2022-12-18T13:54:15.471Z,100569.19
2022-12-18T13:56:28.547Z,100571.28
2022-12-18T13:58:30.980Z,100564.72
2022-12-18T14:00:32.659Z,100568.97
2022-12-18T14:02:35.897Z,100562.81
2022-12-18T14:04:37.348Z,100563.91
2022-12-18T14:06:39.881Z,100563.53
2022-12-18T14:08:44.501Z,100561.16
2022-12-18T14:10:49.959Z,100561.84
2022-12-18T14:13:00.893Z,100561.31
2022-12-18T14:15:06.891Z,100554.44
2022-12-18T14:17:12.308Z,100554.06
2022-12-18T14:19:18.499Z,100550.78
2022-12-18T14:21:24.483Z,100544.09
2022-12-18T14:23:37.870Z,100540.94
2022-12-18T14:25:39.524Z,100541.75
2022-12-18T14:27:46.643Z,100543.59
2022-12-18T14:29:48.118Z,100537.03
2022-12-18T14:32:25.018Z,100531.44
2022-12-18T14:34:27.806Z,100529.38
2022-12-18T14:36:30.290Z,100529.16
2022-12-18T14:38:37.057Z,100525.72
2022-12-18T14:40:38.554Z,100513.94
2022-12-18T14:42:39.972Z,100528.38
2022-12-18T14:45:05.297Z,100516.59
2022-12-18T14:47:02.780Z,100514.41
2022-12-18T14:49:33.520Z,100507.97
2022-12-18T14:51:35.493Z,100495.66
2022-12-18T14:53:53.978Z,100491.44
2022-12-18T14:55:56.039Z,100489.09
2022-12-18T14:57:58.399Z,100487.59
2022-12-18T15:00:17.796Z,100484.41
2022-12-18T15:02:22.087Z,100480.31
2022-12-18T15:04:30.241Z,100475.53
2022-12-18T15:06:35.525Z,100479.59
2022-12-18T15:08:37.936Z,100468.09
2022-12-18T15:10:48.690Z,100463.78
2022-12-18T15:12:56.124Z,100452.78
2022-12-18T15:14:59.983Z,100455.97
2022-12-18T15:17:06.001Z,100450.75
2022-12-18T15:19:09.061Z,100452.38
2022-12-18T15:21:12.278Z,100451.00
2022-12-18T15:23:45.955Z,100453.25
2022-12-18T15:25:49.892Z,100450.78
2022-12-18T15:27:51.328Z,100447.75
2022-12-18T15:30:08.798Z,100444.19
2022-12-18T15:32:20.849Z,100441.84
2022-12-18T15:34:24.371Z,100443.13
2022-12-18T15:36:30.339Z,100442.13
2022-12-18T15:38:32.729Z,100438.19
2022-12-18T15:40:34.304Z,100434.91
2022-12-18T15:42:54.560Z,100434.78
2022-12-18T15:44:55.948Z,100432.97
2022-12-18T15:46:58.039Z,100437.22
2022-12-18T15:49:02.760Z,100426.44
2022-12-18T15:51:06.152Z,100432.44
2022-12-18T15:53:09.791Z,100437.66
2022-12-18T15:55:37.709Z,100433.41
2022-12-18T15:57:39.602Z,100433.25
2022-12-18T15:59:41.159Z,100423.97
2022-12-18T16:01:44.374Z,100426.03
2022-12-18T16:03:46.119Z,100422.59
2022-12-18T16:05:47.779Z,100423.00
2022-12-18T16:07:49.212Z,100430.94
2022-12-18T16:09:50.667Z,100433.84
2022-12-18T16:11:52.143Z,100434.50
2022-12-18T16:13:53.515Z,100429.06
2022-12-18T16:15:54.898Z,100432.50
2022-12-18T16:17:56.416Z,100427.41
2022-12-18T16:19:57.783Z,100425.09
2022-12-18T16:21:59.786Z,100417.81
2022-12-18T16:24:01.236Z,100419.34
2022-12-18T16:26:02.634Z,100406.63
2022-12-18T16:28:04.044Z,100411.00
2022-12-18T16:30:06.183Z,100416.91
2022-12-18T16:32:07.546Z,100422.25
2022-12-18T16:34:20.275Z,100423.38
2022-12-18T16:36:24.077Z,100423.25
2022-12-18T16:38:25.449Z,100420.78
2022-12-18T16:40:26.933Z,100414.50
2022-12-18T16:42:28.359Z,100415.59
2022-12-18T16:44:29.747Z,100420.53
2022-12-18T16:46:31.441Z,100413.00
2022-12-18T16:48:35.799Z,100415.22
2022-12-18T16:50:37.204Z,100416.84
2022-12-18T16:52:39.000Z,100428.91
2022-12-18T16:54:40.531Z,100425.75
2022-12-18T16:56:42.933Z,100428.50
2022-12-18T16:58:44.345Z,100420.44
2022-12-18T17:00:46.663Z,100422.50
2022-12-18T17:02:48.403Z,100417.41
2022-12-18T17:04:49.996Z,100418.09
2022-12-18T17:06:54.178Z,100433.28
2022-12-18T17:09:05.173Z,100429.03
2022-12-18T17:11:09.612Z,100424.28
2022-12-18T17:13:11.093Z,100426.59
2022-12-18T17:15:12.424Z,100418.09
2022-12-18T17:17:22.635Z,100411.94
2022-12-18T17:19:25.012Z,100416.19
2022-12-18T17:21:26.456Z,100415.88
2022-12-18T17:23:29.192Z,100407.38
2022-12-18T17:25:30.539Z,100399.88
2022-12-18T17:27:31.955Z,100396.97
2022-12-18T17:29:33.432Z,100405.72
2022-12-18T17:31:35.176Z,100394.31
2022-12-18T17:33:36.602Z,100392.78
2022-12-18T17:35:37.985Z,100389.13
2022-12-18T17:37:39.365Z,100385.69
2022-12-18T17:39:40.948Z,100396.50
2022-12-18T17:41:42.297Z,100382.13
2022-12-18T17:43:45.746Z,100369.13
2022-12-18T17:45:47.153Z,100371.06
2022-12-18T17:47:48.542Z,100365.84
2022-12-18T17:49:49.948Z,100367.22
2022-12-18T17:51:51.576Z,100369.94
2022-12-18T17:53:53.620Z,100377.63
2022-12-18T17:55:56.028Z,100379.53
2022-12-18T17:57:57.461Z,100373.91
2022-12-18T17:59:58.861Z,100367.34
2022-12-18T18:02:00.355Z,100375.56
2022-12-18T18:04:04.564Z,100369.53
2022-12-18T18:06:06.592Z,100375.03
2022-12-18T18:08:08.241Z,100375.03
2022-12-18T18:10:09.951Z,100379.25
2022-12-18T18:12:29.866Z,100383.78
2022-12-18T18:14:31.952Z,100382.97
2022-12-18T18:16:36.419Z,100382.66
2022-12-18T18:18:39.624Z,100377.75
2022-12-18T18:20:41.008Z,100389.53
2022-12-18T18:22:43.127Z,100384.50
2022-12-18T18:24:44.694Z,100389.81
2022-12-18T18:26:46.980Z,100391.06
2022-12-18T18:28:48.992Z,100390.13
2022-12-18T18:30:50.503Z,100402.47
2022-12-18T18:32:53.062Z,100406.44
2022-12-18T18:34:54.977Z,100393.44
2022-12-18T18:37:01.385Z,100397.56
2022-12-18T18:39:03.033Z,100397.31
2022-12-18T18:41:05.540Z,100406.34
2022-12-18T18:43:06.973Z,100393.75
2022-12-18T18:45:09.079Z,100402.25
2022-12-18T18:47:10.443Z,100399.66
2022-12-18T18:49:13.586Z,100404.56
2022-12-18T18:51:21.111Z,100417.31
2022-12-18T18:53:23.035Z,100417.03
2022-12-18T18:55:25.827Z,100408.03
2022-12-18T18:57:30.273Z,100409.91
2022-12-18T18:59:32.366Z,100412.53
2022-12-18T19:01:33.993Z,100411.03
2022-12-18T19:03:37.730Z,100407.19
2022-12-18T19:05:42.982Z,100412.41
2022-12-18T19:07:45.878Z,100418.28
2022-12-18T19:09:51.810Z,100424.16
2022-12-18T19:12:11.565Z,100418.00
2022-12-18T19:14:39.437Z,100415.69
2022-12-18T19:16:42.726Z,100413.50
2022-12-18T19:18:44.553Z,100407.34
2022-12-18T19:21:05.252Z,100424.31
2022-12-18T19:23:06.632Z,100418.81
2022-12-18T19:25:09.208Z,100422.69
2022-12-18T19:27:10.968Z,100423.22
2022-12-18T19:29:14.583Z,100432.81
2022-12-18T19:31:24.197Z,100417.06
2022-12-18T19:33:45.068Z,100426.38
2022-12-18T19:35:46.780Z,100434.59
2022-12-18T19:37:48.338Z,100422.69
2022-12-18T19:39:49.763Z,100421.97
2022-12-18T19:41:52.418Z,100430.50
2022-12-18T19:43:53.930Z,100442.13
2022-12-18T19:45:55.944Z,100446.34
2022-12-18T19:48:02.554Z,100457.44
2022-12-18T19:50:06.204Z,100443.72
2022-12-18T19:52:07.629Z,100442.66
2022-12-18T19:54:12.111Z,100432.78
2022-12-18T19:56:20.109Z,100435.66
2022-12-18T19:58:21.798Z,100438.16
2022-12-18T20:00:24.341Z,100439.38
2022-12-18T20:02:25.950Z,100439.22
2022-12-18T20:04:27.735Z,100434.19
2022-12-18T20:06:55.497Z,100429.53
2022-12-18T20:09:01.154Z,100433.22
2022-12-18T20:11:02.750Z,100435.66
2022-12-18T20:13:04.419Z,100423.63
2022-12-18T20:15:06.259Z,100430.88
2022-12-18T20:17:07.702Z,100435.13
2022-12-18T20:19:12.097Z,100435.94
2022-12-18T20:21:14.246Z,100426.50
2022-12-18T20:23:15.837Z,100418.84
2022-12-18T20:25:20.241Z,100426.81
2022-12-18T20:27:22.011Z,100425.16
2022-12-18T20:29:25.503Z,100418.28
2022-12-18T20:31:27.009Z,100418.28
2022-12-18T20:33:29.487Z,100416.53
2022-12-18T20:35:37.340Z,100418.16
2022-12-18T20:37:40.661Z,100417.06
2022-12-18T20:39:46.307Z,100420.50
2022-12-18T20:41:47.894Z,100423.22
2022-12-18T20:43:49.819Z,100422.69
2022-12-18T20:45:51.236Z,100426.38
2022-12-18T20:47:59.472Z,100423.22
2022-12-18T20:50:00.926Z,100425.00
2022-12-18T20:52:03.021Z,100429.94
2022-12-18T20:54:08.013Z,100430.88
2022-12-18T20:56:21.947Z,100432.09
2022-12-18T20:58:23.806Z,100438.00
2022-12-18T21:00:25.285Z,100452.09
2022-12-18T21:02:27.002Z,100443.59
2022-12-18T21:04:28.692Z,100435.66
2022-12-18T21:06:30.333Z,100437.44
2022-12-18T21:08:32.197Z,100433.75
2022-12-18T21:10:33.607Z,100433.75
2022-12-18T21:12:42.450Z,100432.25
2022-12-18T21:14:54.894Z,100430.06
2022-12-18T21:16:57.415Z,100433.75
2022-12-18T21:18:59.103Z,100433.91
2022-12-18T21:21:00.614Z,100424.69
2022-12-18T21:23:08.916Z,100424.84
2022-12-18T21:25:17.887Z,100432.38
2022-12-18T21:27:19.648Z,100435.09
2022-12-18T21:29:25.727Z,100434.97
2022-12-18T21:31:29.905Z,100433.34
2022-12-18T21:33:31.391Z,100447.28
2022-12-18T21:35:32.726Z,100439.22
2022-12-18T21:37:34.177Z,100445.38
2022-12-18T21:39:35.596Z,100443.59
2022-12-18T21:41:55.326Z,100437.44
2022-12-18T21:44:06.539Z,100428.66
2022-12-18T21:46:07.980Z,100430.31
2022-12-18T21:48:09.393Z,100424.84
2022-12-18T21:50:10.828Z,100428.38
2022-12-18T21:52:12.232Z,100436.88
2022-12-18T21:54:13.623Z,100429.38
2022-12-18T21:56:15.038Z,100427.16
2022-12-18T21:58:16.391Z,100424.25
2022-12-18T22:00:48.315Z,100414.69
2022-12-18T22:03:15.590Z,100412.09
2022-12-18T22:05:11.533Z,100410.31
2022-12-18T22:07:15.216Z,100402.09
2022-12-18T22:09:19.904Z,100394.94
2022-12-18T22:11:21.287Z,100398.50
2022-12-18T22:13:23.790Z,100397.44
2022-12-18T22:15:25.164Z,100392.06
2022-12-18T22:17:51.315Z,100392.22
2022-12-18T22:20:01.079Z,100383.31
2022-12-18T22:22:02.563Z,100374.56
2022-12-18T22:24:06.630Z,100374.25
2022-12-18T22:26:10.642Z,100379.88
2022-12-18T22:28:30.586Z,100374.13
2022-12-18T22:30:31.971Z,100381.66
2022-12-18T22:32:35.586Z,100368.47
2022-12-18T22:34:38.473Z,100369.31
2022-12-18T22:36:46.053Z,100372.59
2022-12-18T22:38:47.494Z,100368.19
2022-12-18T22:40:48.839Z,100358.59
2022-12-18T22:42:50.727Z,100364.50
2022-12-18T22:44:53.987Z,100370.53
2022-12-18T22:47:06.487Z,100364.22
2022-12-18T22:49:13.204Z,100360.91
2022-12-18T22:51:16.166Z,100362.44
2022-12-18T22:53:17.732Z,100365.03
2022-12-18T22:55:19.342Z,100359.53
2022-12-18T22:57:22.188Z,100355.16
2022-12-18T22:59:24.117Z,100361.19
2022-12-18T23:01:27.963Z,100363.91
2022-12-18T23:03:31.314Z,100361.19
2022-12-18T23:05:32.717Z,100360.06
2022-12-18T23:07:34.132Z,100359.25
2022-12-18T23:09:35.647Z,100353.09
2022-12-18T23:11:37.028Z,100348.69
2022-12-18T23:13:39.017Z,100346.75
2022-12-18T23:15:43.387Z,100343.34
2022-12-18T23:17:44.798Z,100336.34
2022-12-18T23:19:49.166Z,100339.91
2022-12-18T23:21:51.566Z,100334.44
2022-12-18T23:23:52.932Z,100335.53
2022-12-18T23:26:00.938Z,100333.63
2022-12-18T23:28:02.337Z,100324.69
2022-12-18T23:30:04.456Z,100327.28
2022-12-18T23:32:08.292Z,100318.53
2022-12-18T23:34:12.364Z,100311.81
2022-12-18T23:36:14.562Z,100310.03
2022-12-18T23:38:15.975Z,100305.66
2022-12-18T23:40:17.947Z,100300.44
2022-12-18T23:42:19.375Z,100306.59
2022-12-18T23:44:22.439Z,100300.53
2022-12-18T23:46:32.153Z,100302.44
2022-12-18T23:48:33.628Z,100305.88
2022-12-18T23:50:35.746Z,100294.50
2022-12-18T23:52:37.209Z,100301.50
2022-12-18T23:54:39.350Z,100292.19
2022-12-18T23:56:40.781Z,100288.03
2022-12-18T23:58:43.260Z,100278.75
